Time;durP1;ratioP1;P1;durP2;ratioP2;P2;SDS_P1;SDS_P2;PMS_P1;PMS_P2;Temp;Humidity;BMP_temperature;BMP_pressure;BME280_temperature;BME280_humidity;BME280_pressure;Samples;Min_cycle;Max_cycle;Signal;HPM_P1;HPM_P2
2023/12/31 00:01:55;;;;;;;8.15;2.60;;;8.30;99.90;;;;;;5007425;28;20588;-86
2023/12/31 00:04:22;;;;;;;8.05;2.45;;;8.40;99.90;;;;;;4993332;28;20033;-85
2023/12/31 00:06:47;;;;;;;7.40;2.38;;;8.40;99.90;;;;;;5011847;28;20042;-86
2023/12/31 00:09:13;;;;;;;8.30;2.38;;;8.40;99.90;;;;;;4975888;28;20046;-86
2023/12/31 00:11:39;;;;;;;8.60;2.40;;;8.50;99.90;;;;;;4977459;28;20131;-86
2023/12/31 00:14:05;;;;;;;7.65;2.40;;;8.40;99.90;;;;;;4974976;28;20128;-86
2023/12/31 00:16:36;;;;;;;8.02;2.60;;;;;;;;;;4992398;28;20123;-86
2023/12/31 00:19:12;;;;;;;6.32;2.10;;;8.30;99.90;;;;;;5010994;28;20053;-87
2023/12/31 00:21:44;;;;;;;6.10;2.15;;;8.40;99.90;;;;;;4995677;28;20052;-86
2023/12/31 00:24:10;;;;;;;6.72;2.40;;;8.40;99.90;;;;;;4990651;28;20038;-86
2023/12/31 00:26:36;;;;;;;6.85;2.15;;;8.40;99.90;;;;;;5023331;28;20033;-85
2023/12/31 00:29:01;;;;;;;6.30;2.38;;;8.30;99.90;;;;;;5043365;28;20517;-86
2023/12/31 00:31:27;;;;;;;5.47;2.13;;;8.30;99.90;;;;;;4957745;28;20050;-85
2023/12/31 00:33:56;;;;;;;6.63;2.10;;;8.70;99.90;;;;;;4960051;28;20040;-86
2023/12/31 00:36:24;;;;;;;7.10;2.30;;;8.30;99.90;;;;;;4976914;28;20494;-86
2023/12/31 00:38:50;;;;;;;8.57;2.42;;;8.30;99.90;;;;;;4958736;28;20041;-85
2023/12/31 00:41:16;;;;;;;5.85;2.13;;;8.30;99.90;;;;;;4975854;28;20030;-86
2023/12/31 00:43:42;;;;;;;7.18;2.83;;;8.50;99.90;;;;;;4991218;28;20307;-85
2023/12/31 00:46:07;;;;;;;6.53;2.17;;;8.30;99.90;;;;;;4975525;28;20073;-86
2023/12/31 00:48:33;;;;;;;7.03;2.10;;;8.60;99.90;;;;;;4955096;28;20073;-86
2023/12/31 00:51:01;;;;;;;6.05;2.03;;;8.30;99.90;;;;;;4988713;28;20043;-86
2023/12/31 00:53:27;;;;;;;6.10;2.00;;;8.40;99.90;;;;;;5008167;28;20038;-86
2023/12/31 00:55:52;;;;;;;9.05;2.50;;;8.60;99.90;;;;;;4975872;28;20042;-86
2023/12/31 00:58:18;;;;;;;6.25;2.05;;;8.40;99.90;;;;;;5007425;28;20579;-86
2023/12/31 01:00:44;;;;;;;5.45;1.95;;;8.40;99.90;;;;;;4989922;28;20414;-85
2023/12/31 01:03:09;;;;;;;5.97;1.98;;;8.30;99.90;;;;;;4959913;28;20049;-86
2023/12/31 01:05:35;;;;;;;5.63;2.05;;;8.30;99.90;;;;;;4991639;28;20038;-86
2023/12/31 01:08:01;;;;;;;6.28;2.20;;;9.30;99.90;;;;;;4976025;28;20121;-85
2023/12/31 01:10:27;;;;;;;5.85;2.10;;;8.40;99.90;;;;;;5007367;28;20042;-86
2023/12/31 01:12:53;;;;;;;6.60;2.17;;;8.20;99.90;;;;;;4972800;28;20099;-86
2023/12/31 01:15:18;;;;;;;6.43;2.10;;;8.20;99.90;;;;;;4956501;28;20585;-86
2023/12/31 01:17:44;;;;;;;6.70;2.10;;;8.30;99.90;;;;;;4972355;28;20082;-86
2023/12/31 01:20:10;;;;;;;5.68;2.00;;;8.30;99.90;;;;;;4992053;28;20038;-86
2023/12/31 01:22:36;;;;;;;6.95;1.95;;;8.20;99.90;;;;;;4987802;28;20030;-86
2023/12/31 01:25:03;;;;;;;5.90;1.80;;;8.30;99.90;;;;;;5008569;28;20117;-86
2023/12/31 01:27:29;;;;;;;5.32;1.90;;;8.20;99.90;;;;;;4991441;28;20038;-86
2023/12/31 01:29:54;;;;;;;5.35;2.00;;;8.30;99.90;;;;;;4959571;28;20045;-86
2023/12/31 01:32:20;;;;;;;5.68;1.90;;;8.40;99.90;;;;;;4989000;28;20057;-85
2023/12/31 01:34:50;;;;;;;5.65;1.85;;;;;;;;;;4972103;28;20125;-86
2023/12/31 01:37:15;;;;;;;5.65;1.83;;;8.20;99.90;;;;;;4983106;28;20510;-86
2023/12/31 01:39:41;;;;;;;4.97;1.80;;;8.50;99.90;;;;;;4959522;28;20042;-85
2023/12/31 01:42:07;;;;;;;6.32;1.95;;;8.20;99.90;;;;;;4953831;28;20085;-86
2023/12/31 01:44:32;;;;;;;4.47;1.83;;;8.10;99.90;;;;;;4956279;28;20462;-85
2023/12/31 01:46:58;;;;;;;6.57;2.20;;;8.00;99.90;;;;;;5007947;28;20534;-86
2023/12/31 01:49:26;;;;;;;5.15;2.05;;;8.10;99.90;;;;;;4974188;28;20054;-86
2023/12/31 01:51:52;;;;;;;6.75;2.22;;;8.10;99.90;;;;;;4964688;28;20057;-86
2023/12/31 01:54:19;;;;;;;5.47;2.10;;;8.70;99.90;;;;;;4975230;28;20054;-86
2023/12/31 01:56:46;;;;;;;6.15;2.20;;;7.90;99.90;;;;;;5000046;28;20038;-86
2023/12/31 01:59:12;;;;;;;6.00;2.00;;;7.90;99.90;;;;;;4990606;28;20419;-85
2023/12/31 02:01:38;;;;;;;6.43;2.25;;;7.80;99.90;;;;;;4970090;28;20515;-86
2023/12/31 02:04:06;;;;;;;6.90;2.47;;;7.80;99.90;;;;;;4975593;28;20038;-86
2023/12/31 02:06:31;;;;;;;5.95;2.15;;;7.80;99.90;;;;;;4992827;28;20406;-86
2023/12/31 02:08:57;;;;;;;6.82;2.40;;;7.80;99.90;;;;;;5001029;28;20042;-86
2023/12/31 02:11:24;;;;;;;6.28;2.30;;;7.80;99.90;;;;;;4962500;28;20042;-86
2023/12/31 02:13:49;;;;;;;6.30;2.15;;;7.60;99.90;;;;;;4953681;28;20076;-85
2023/12/31 02:16:21;;;;;;;6.40;2.38;;;7.70;99.90;;;;;;4974421;28;20047;-86
2023/12/31 02:18:47;;;;;;;6.30;2.30;;;7.80;99.90;;;;;;4986198;28;20046;-86
2023/12/31 02:21:13;;;;;;;8.15;2.53;;;7.80;99.90;;;;;;4976558;28;20096;-86
2023/12/31 02:23:40;;;;;;;5.72;2.30;;;7.60;99.90;;;;;;4974246;28;20108;-86
2023/12/31 02:26:11;;;;;;;6.88;2.55;;;7.70;99.90;;;;;;4974969;28;20049;-86
2023/12/31 02:28:37;;;;;;;6.13;2.28;;;8.40;99.90;;;;;;4970348;28;20042;-86
2023/12/31 02:31:04;;;;;;;7.38;2.45;;;7.60;99.90;;;;;;4988784;28;20045;-86
2023/12/31 02:33:31;;;;;;;8.40;2.40;;;7.50;99.90;;;;;;4959232;28;20042;-86
2023/12/31 02:35:56;;;;;;;7.93;2.50;;;7.60;99.90;;;;;;4979092;28;20503;-86
2023/12/31 02:38:22;;;;;;;7.00;2.70;;;7.60;99.90;;;;;;4977236;28;20049;-86
2023/12/31 02:40:48;;;;;;;7.65;2.72;;;7.70;99.90;;;;;;4957718;28;20049;-86
2023/12/31 02:43:14;;;;;;;7.15;2.60;;;7.80;99.90;;;;;;4976997;28;20038;-85
2023/12/31 02:45:39;;;;;;;6.88;2.42;;;7.50;99.90;;;;;;4993506;28;20030;-86
2023/12/31 02:48:06;;;;;;;7.10;2.65;;;8.30;99.90;;;;;;4972894;28;20117;-86
2023/12/31 02:50:32;;;;;;;6.78;2.30;;;7.70;99.90;;;;;;4981012;28;20066;-85
2023/12/31 02:52:58;;;;;;;5.88;2.40;;;7.70;99.90;;;;;;4986549;28;20066;-85
2023/12/31 02:55:23;;;;;;;7.03;2.60;;;7.60;99.90;;;;;;4965413;28;20066;-86
2023/12/31 02:57:49;;;;;;;7.10;2.40;;;7.60;99.90;;;;;;4973636;28;20141;-86
2023/12/31 03:00:15;;;;;;;5.80;2.20;;;7.50;99.90;;;;;;4961859;28;20045;-85
2023/12/31 03:02:41;;;;;;;6.38;2.17;;;7.70;99.90;;;;;;4971213;28;20046;-86
2023/12/31 03:05:07;;;;;;;6.63;2.15;;;7.50;99.90;;;;;;4976488;28;20042;-86
2023/12/31 03:07:34;;;;;;;6.32;2.20;;;7.50;99.90;;;;;;4993621;28;20045;-86
2023/12/31 03:10:00;;;;;;;6.05;2.20;;;7.70;99.90;;;;;;5009926;28;20069;-86
2023/12/31 03:12:25;;;;;;;7.65;2.50;;;7.60;99.90;;;;;;4973629;28;20077;-86
2023/12/31 03:14:51;;;;;;;5.60;2.00;;;7.60;99.90;;;;;;4947851;28;20471;-86
2023/12/31 03:17:16;;;;;;;4.65;1.88;;;8.70;99.90;;;;;;4976019;28;20144;-86
2023/12/31 03:19:42;;;;;;;5.28;2.10;;;7.40;99.90;;;;;;4994049;28;20073;-86
2023/12/31 03:22:08;;;;;;;4.95;2.00;;;7.60;99.90;;;;;;4960855;28;20496;-86
2023/12/31 03:24:33;;;;;;;8.02;2.25;;;7.40;99.90;;;;;;4970918;28;20145;-86
2023/12/31 03:26:59;;;;;;;5.65;2.10;;;7.60;99.90;;;;;;4989603;28;20068;-86
2023/12/31 03:29:26;;;;;;;6.60;2.00;;;7.50;99.90;;;;;;4960642;28;20529;-86
2023/12/31 03:31:52;;;;;;;6.05;1.85;;;7.50;99.90;;;;;;4992346;28;20038;-86
2023/12/31 03:34:18;;;;;;;6.47;2.10;;;8.10;99.90;;;;;;4976113;28;20041;-86
2023/12/31 03:36:44;;;;;;;5.95;2.00;;;7.50;99.90;;;;;;4976516;28;20398;-85
2023/12/31 03:39:09;;;;;;;5.32;1.90;;;7.60;99.90;;;;;;4976859;28;20073;-86
2023/12/31 03:41:35;;;;;;;5.47;2.00;;;7.40;99.90;;;;;;5009039;28;20517;-86
2023/12/31 03:44:01;;;;;;;5.90;1.88;;;8.10;99.90;;;;;;4964279;28;20069;-86
2023/12/31 03:46:28;;;;;;;5.65;1.90;;;7.60;99.90;;;;;;4958265;28;20112;-85
2023/12/31 03:48:53;;;;;;;4.50;1.80;;;7.50;99.90;;;;;;4989506;28;20088;-85
2023/12/31 03:51:19;;;;;;;4.65;1.80;;;7.70;99.90;;;;;;4993126;28;20407;-85
2023/12/31 03:53:45;;;;;;;5.18;1.95;;;8.40;99.90;;;;;;4976841;28;20050;-86
2023/12/31 03:56:10;;;;;;;4.28;1.80;;;8.30;99.90;;;;;;4960505;28;20054;-86
2023/12/31 03:58:37;;;;;;;4.68;1.80;;;7.60;99.90;;;;;;4975042;28;20177;-85
2023/12/31 04:01:03;;;;;;;5.72;1.88;;;7.60;99.90;;;;;;4960693;28;20033;-86
2023/12/31 04:03:29;;;;;;;5.32;1.90;;;7.70;99.90;;;;;;4992196;28;20033;-86
2023/12/31 04:05:55;;;;;;;4.78;1.90;;;7.70;99.90;;;;;;4992709;28;20038;-86
2023/12/31 04:08:20;;;;;;;5.63;1.85;;;7.70;99.90;;;;;;4959650;28;20042;-86
2023/12/31 04:10:46;;;;;;;6.60;1.92;;;7.70;99.90;;;;;;4956700;28;20058;-85
2023/12/31 04:13:12;;;;;;;3.67;1.63;;;7.70;99.90;;;;;;4976327;28;20038;-85
2023/12/31 04:15:37;;;;;;;5.68;1.90;;;7.70;99.90;;;;;;4990899;28;20506;-86
2023/12/31 04:18:03;;;;;;;7.00;2.03;;;7.60;99.90;;;;;;4992520;28;20077;-86
2023/12/31 04:20:29;;;;;;;4.88;1.80;;;7.70;99.90;;;;;;4976639;28;20486;-86
2023/12/31 04:22:54;;;;;;;5.53;2.10;;;8.40;99.90;;;;;;4990976;28;20038;-85
2023/12/31 04:25:20;;;;;;;5.10;1.90;;;7.60;99.90;;;;;;4954570;28;20506;-86
2023/12/31 04:27:46;;;;;;;6.28;2.00;;;7.70;99.90;;;;;;4970482;28;20121;-85
2023/12/31 04:30:15;;;;;;;5.05;1.80;;;7.60;99.90;;;;;;4960093;28;20041;-85
2023/12/31 04:32:40;;;;;;;3.60;1.83;;;7.70;99.90;;;;;;4992413;28;20041;-85
2023/12/31 04:35:06;;;;;;;6.30;1.80;;;7.80;99.90;;;;;;4960127;28;20429;-85
2023/12/31 04:37:32;;;;;;;4.38;1.85;;;7.70;99.90;;;;;;4974903;28;20480;-86
2023/12/31 04:39:58;;;;;;;5.30;2.00;;;8.40;99.90;;;;;;4992139;28;20128;-85
2023/12/31 04:42:24;;;;;;;7.82;2.00;;;8.00;99.90;;;;;;4992100;28;20038;-86
2023/12/31 04:44:49;;;;;;;5.57;2.13;;;7.50;99.90;;;;;;4972822;28;20074;-86
2023/12/31 04:47:15;;;;;;;7.13;2.15;;;7.80;99.90;;;;;;4973509;28;20424;-85
2023/12/31 04:49:42;;;;;;;5.15;1.90;;;7.60;99.90;;;;;;4974461;28;20041;-85
2023/12/31 04:52:08;;;;;;;6.28;2.10;;;7.70;99.90;;;;;;4991827;28;20454;-86
2023/12/31 04:54:34;;;;;;;5.15;2.00;;;7.90;99.90;;;;;;4975819;28;20138;-86
2023/12/31 04:57:00;;;;;;;6.03;2.00;;;8.40;99.90;;;;;;4975505;28;20038;-85
2023/12/31 04:59:26;;;;;;;4.78;1.95;;;7.50;99.90;;;;;;4989055;28;20049;-86
2023/12/31 05:01:52;;;;;;;5.78;1.98;;;7.60;99.90;;;;;;4958450;28;20124;-86
2023/12/31 05:04:19;;;;;;;6.90;2.70;;;8.20;99.90;;;;;;4980289;28;20492;-86
2023/12/31 05:06:45;;;;;;;5.00;2.00;;;7.70;99.90;;;;;;4976017;28;20041;-86
2023/12/31 05:09:11;;;;;;;5.95;2.20;;;7.90;99.90;;;;;;4973113;28;20058;-86
2023/12/31 05:11:37;;;;;;;5.85;2.13;;;7.60;99.90;;;;;;4959959;28;20589;-86
2023/12/31 05:14:04;;;;;;;6.03;2.03;;;7.60;99.90;;;;;;4989973;28;20045;-86
2023/12/31 05:16:33;;;;;;;5.28;2.03;;;8.40;99.90;;;;;;4991650;28;20422;-86
2023/12/31 05:19:00;;;;;;;6.43;2.13;;;7.60;99.90;;;;;;4955187;28;20042;-86
2023/12/31 05:21:26;;;;;;;5.47;2.00;;;8.00;99.90;;;;;;4976215;28;20551;-86
2023/12/31 05:23:52;;;;;;;5.43;2.20;;;;;;;;;;4990287;28;20045;-86
2023/12/31 05:26:18;;;;;;;6.22;2.53;;;7.60;99.90;;;;;;4990079;28;20046;-86
2023/12/31 05:28:44;;;;;;;7.35;2.50;;;7.90;99.90;;;;;;4954522;28;20046;-85
2023/12/31 05:31:13;;;;;;;6.00;2.30;;;7.70;99.90;;;;;;4999825;28;20057;-85
2023/12/31 05:33:40;;;;;;;6.75;2.42;;;7.70;99.90;;;;;;4972699;28;20046;-86
2023/12/31 05:36:06;;;;;;;5.93;2.25;;;8.60;99.90;;;;;;5004073;28;20046;-85
2023/12/31 05:38:31;;;;;;;6.03;2.20;;;7.70;99.90;;;;;;4962504;28;20091;-86
2023/12/31 05:40:57;;;;;;;6.40;2.35;;;7.80;99.90;;;;;;4993089;28;20523;-86
2023/12/31 05:43:23;;;;;;;7.07;2.33;;;7.80;99.90;;;;;;4976016;28;20034;-86
2023/12/31 05:45:49;;;;;;;5.97;2.25;;;7.70;99.90;;;;;;4960723;28;20143;-85
2023/12/31 05:48:15;;;;;;;7.47;2.30;;;9.00;99.90;;;;;;4986849;28;20033;-85
2023/12/31 05:50:41;;;;;;;5.97;2.30;;;7.80;99.90;;;;;;4978581;28;20526;-86
2023/12/31 05:53:07;;;;;;;5.95;2.10;;;7.80;99.90;;;;;;4994674;28;20184;-86
2023/12/31 05:55:32;;;;;;;6.43;2.25;;;7.70;99.90;;;;;;5008905;28;20038;-86
2023/12/31 05:57:58;;;;;;;6.18;2.17;;;7.80;99.90;;;;;;4994337;28;20046;-85
2023/12/31 06:00:24;;;;;;;5.20;2.10;;;9.20;99.90;;;;;;4977622;28;20091;-86
2023/12/31 06:02:50;;;;;;;6.50;2.28;;;7.80;99.90;;;;;;4994919;28;20038;-86
2023/12/31 06:05:17;;;;;;;6.80;2.20;;;8.20;99.90;;;;;;4977948;28;20041;-85
2023/12/31 06:07:43;;;;;;;6.10;2.20;;;7.80;99.90;;;;;;5009829;28;20045;-86
2023/12/31 06:10:09;;;;;;;6.32;2.13;;;7.90;99.90;;;;;;4994060;28;20300;-86
2023/12/31 06:12:35;;;;;;;6.80;2.60;;;7.80;99.90;;;;;;4962527;28;20045;-85
2023/12/31 06:15:06;;;;;;;5.95;2.30;;;7.80;99.90;;;;;;4975228;28;20050;-86
2023/12/31 06:17:32;;;;;;;6.63;2.30;;;8.00;99.90;;;;;;4977646;28;20065;-86
2023/12/31 06:19:58;;;;;;;6.50;2.30;;;7.80;99.90;;;;;;4994291;28;20395;-86
2023/12/31 06:22:23;;;;;;;5.97;2.22;;;7.90;99.90;;;;;;4978284;28;20037;-85
2023/12/31 06:24:49;;;;;;;6.75;2.70;;;7.80;99.90;;;;;;4978320;28;20550;-86
2023/12/31 06:27:15;;;;;;;5.53;2.20;;;8.00;99.90;;;;;;4961850;28;20065;-86
2023/12/31 06:29:40;;;;;;;6.97;2.30;;;8.00;99.90;;;;;;4975143;28;20159;-86
2023/12/31 06:32:06;;;;;;;7.28;2.40;;;8.00;99.90;;;;;;4978106;28;20076;-86
2023/12/31 06:34:32;;;;;;;5.93;2.17;;;7.90;99.90;;;;;;4994651;28;20042;-86
2023/12/31 06:36:57;;;;;;;5.93;2.28;;;8.00;99.90;;;;;;4960722;28;20108;-85
2023/12/31 06:39:23;;;;;;;7.15;2.13;;;7.90;99.90;;;;;;4973682;28;20051;-85
2023/12/31 06:41:50;;;;;;;5.72;2.17;;;7.90;99.90;;;;;;4973897;28;20558;-86
2023/12/31 06:44:16;;;;;;;6.57;2.50;;;8.50;99.90;;;;;;4974673;28;20046;-86
2023/12/31 06:46:42;;;;;;;5.88;2.50;;;7.90;99.90;;;;;;4959154;28;20395;-86
2023/12/31 06:49:08;;;;;;;7.60;2.58;;;8.00;99.90;;;;;;4958743;28;20037;-86
2023/12/31 06:51:33;;;;;;;7.95;2.45;;;7.90;99.90;;;;;;4974096;28;20100;-86
2023/12/31 06:53:59;;;;;;;5.30;2.10;;;8.20;99.90;;;;;;4981163;28;20116;-86
2023/12/31 06:56:25;;;;;;;6.15;2.35;;;8.30;99.90;;;;;;4976960;28;20355;-86
2023/12/31 06:58:50;;;;;;;6.50;2.17;;;8.00;99.90;;;;;;4976956;28;20491;-86
2023/12/31 07:01:16;;;;;;;5.70;2.25;;;7.90;99.90;;;;;;4991022;28;20034;-86
2023/12/31 07:03:43;;;;;;;9.13;2.65;;;9.20;99.90;;;;;;4978052;28;20546;-86
2023/12/31 07:06:09;;;;;;;6.18;2.28;;;8.10;99.90;;;;;;4958911;28;20088;-85
2023/12/31 07:08:35;;;;;;;6.65;2.50;;;8.10;99.90;;;;;;4992383;28;20046;-86
2023/12/31 07:11:00;;;;;;;6.60;2.13;;;8.00;99.90;;;;;;4977155;28;20041;-86
2023/12/31 07:13:26;;;;;;;5.57;2.30;;;8.40;99.90;;;;;;4993634;28;20038;-85
2023/12/31 07:15:52;;;;;;;6.68;2.30;;;8.00;99.90;;;;;;4976500;28;20495;-86
2023/12/31 07:18:18;;;;;;;7.22;2.60;;;8.20;99.90;;;;;;4975110;28;20050;-86
2023/12/31 07:20:43;;;;;;;6.50;2.38;;;8.10;99.90;;;;;;4961556;28;20502;-86
2023/12/31 07:23:09;;;;;;;6.75;2.30;;;8.00;99.90;;;;;;4953006;28;20042;-85
2023/12/31 07:25:36;;;;;;;6.78;2.38;;;8.10;99.90;;;;;;4977134;28;20049;-85
2023/12/31 07:28:01;;;;;;;5.20;2.15;;;8.10;99.90;;;;;;4974801;28;20038;-85
2023/12/31 07:30:27;;;;;;;7.70;2.17;;;8.10;99.90;;;;;;4992648;28;20054;-85
2023/12/31 07:32:53;;;;;;;5.80;2.15;;;8.10;99.90;;;;;;4975775;28;20049;-86
2023/12/31 07:35:19;;;;;;;5.88;2.15;;;8.00;99.90;;;;;;4975918;28;20037;-86
2023/12/31 07:37:44;;;;;;;5.28;2.15;;;8.10;99.90;;;;;;4959259;28;20069;-86
2023/12/31 07:40:10;;;;;;;6.70;2.45;;;8.10;99.90;;;;;;4973717;28;20053;-86
2023/12/31 07:42:39;;;;;;;5.97;2.30;;;8.10;99.90;;;;;;4973699;28;20038;-85
2023/12/31 07:45:06;;;;;;;6.68;2.40;;;8.70;99.90;;;;;;4992290;28;20399;-85
2023/12/31 07:47:32;;;;;;;5.88;2.13;;;8.20;99.90;;;;;;4957020;28;20066;-85
2023/12/31 07:49:58;;;;;;;7.07;2.33;;;8.10;99.90;;;;;;4991677;28;20530;-86
2023/12/31 07:52:25;;;;;;;10.20;2.20;;;8.10;99.90;;;;;;4976921;28;20073;-86
2023/12/31 07:54:51;;;;;;;6.40;2.30;;;8.30;99.90;;;;;;4975081;28;20418;-85
2023/12/31 07:57:16;;;;;;;7.22;2.20;;;8.30;99.90;;;;;;4975708;28;20034;-85
2023/12/31 07:59:43;;;;;;;6.50;2.38;;;8.30;99.90;;;;;;4991709;28;20072;-85
2023/12/31 08:02:09;;;;;;;6.60;2.15;;;8.30;99.90;;;;;;4991205;28;20080;-86
2023/12/31 08:04:35;;;;;;;5.43;2.17;;;8.30;99.90;;;;;;4970672;28;20030;-85
2023/12/31 08:07:01;;;;;;;6.40;2.28;;;8.30;99.90;;;;;;4974358;28;20566;-85
2023/12/31 08:09:26;;;;;;;5.18;2.00;;;8.40;99.90;;;;;;4973758;28;20050;-86
2023/12/31 08:11:52;;;;;;;5.88;2.10;;;8.40;99.90;;;;;;4952331;28;20041;-85
2023/12/31 08:14:18;;;;;;;6.55;2.17;;;8.40;99.90;;;;;;4965375;28;20245;-86
2023/12/31 08:16:43;;;;;;;5.97;2.20;;;9.10;99.90;;;;;;4957170;28;20061;-86
2023/12/31 08:19:09;;;;;;;6.90;2.20;;;8.50;99.90;;;;;;4973664;28;20047;-85
2023/12/31 08:21:35;;;;;;;5.72;2.20;;;8.50;99.90;;;;;;4991572;28;20503;-85
2023/12/31 08:24:01;;;;;;;6.97;2.30;;;8.40;99.90;;;;;;4991548;28;20042;-86
2023/12/31 08:26:26;;;;;;;7.28;2.30;;;8.50;99.90;;;;;;5007829;28;20034;-85
2023/12/31 08:28:52;;;;;;;6.15;2.30;;;8.40;99.90;;;;;;4991838;28;20100;-85
2023/12/31 08:31:18;;;;;;;5.97;2.20;;;8.50;99.90;;;;;;5010389;28;20549;-85
2023/12/31 08:33:43;;;;;;;6.28;2.20;;;8.90;99.90;;;;;;4973272;28;20038;-85
2023/12/31 08:36:09;;;;;;;6.38;2.20;;;8.40;99.90;;;;;;4977865;28;20037;-84
2023/12/31 08:38:35;;;;;;;5.63;2.10;;;8.50;99.90;;;;;;4975700;28;20065;-85
2023/12/31 08:41:01;;;;;;;5.85;2.30;;;8.40;99.90;;;;;;4990240;28;20076;-85
2023/12/31 08:43:27;;;;;;;5.22;1.95;;;8.50;99.90;;;;;;4972616;28;20085;-85
2023/12/31 08:45:53;;;;;;;6.60;2.13;;;8.40;99.90;;;;;;4974151;28;20042;-84
2023/12/31 08:48:20;;;;;;;6.60;2.22;;;8.30;99.90;;;;;;4976450;28;20138;-84
2023/12/31 08:50:46;;;;;;;6.28;2.25;;;8.50;99.90;;;;;;4991500;28;20109;-84
2023/12/31 08:53:12;;;;;;;6.35;2.30;;;9.20;99.90;;;;;;4989360;28;20737;-85
2023/12/31 08:55:37;;;;;;;5.90;2.30;;;8.50;99.90;;;;;;4990244;28;20048;-84
2023/12/31 08:58:03;;;;;;;5.10;1.98;;;8.50;99.90;;;;;;4989223;28;20049;-85
2023/12/31 09:00:32;;;;;;;5.47;2.10;;;8.60;99.90;;;;;;4987987;28;20038;-85
2023/12/31 09:02:58;;;;;;;6.13;2.00;;;8.50;99.90;;;;;;4987835;28;20042;-85
2023/12/31 09:05:24;;;;;;;5.75;2.10;;;8.50;99.90;;;;;;5007971;28;20184;-85
2023/12/31 09:07:50;;;;;;;6.90;2.10;;;8.50;99.90;;;;;;4957867;28;20102;-85
2023/12/31 09:10:16;;;;;;;4.90;2.00;;;8.50;99.90;;;;;;4972296;28;20041;-85
2023/12/31 09:12:42;;;;;;;6.57;2.35;;;8.60;99.90;;;;;;4976236;28;20088;-85
2023/12/31 09:15:08;;;;;;;8.07;2.58;;;9.70;99.90;;;;;;5009773;28;20528;-84
2023/12/31 09:17:38;;;;;;;5.57;2.00;;;8.70;99.90;;;;;;4976810;28;20061;-85
2023/12/31 09:20:08;;;;;;;6.13;2.20;;;8.70;99.90;;;;;;5009362;28;20045;-84
2023/12/31 09:22:34;;;;;;;5.45;1.90;;;8.60;99.90;;;;;;5008405;28;20082;-85
2023/12/31 09:25:00;;;;;;;5.28;2.10;;;8.70;99.90;;;;;;4976520;28;20212;-85
2023/12/31 09:27:26;;;;;;;5.65;2.17;;;8.70;99.90;;;;;;4988497;28;20871;-85
2023/12/31 09:29:51;;;;;;;5.15;2.08;;;8.80;99.90;;;;;;5003510;28;20491;-84
2023/12/31 09:32:17;;;;;;;5.90;2.13;;;8.80;99.90;;;;;;5007251;28;20042;-85
2023/12/31 09:34:43;;;;;;;6.10;2.00;;;8.80;99.90;;;;;;5006408;28;20112;-85
2023/12/31 09:37:09;;;;;;;5.78;2.15;;;8.80;99.90;;;;;;4991521;28;20189;-84
2023/12/31 09:39:35;;;;;;;6.55;2.25;;;8.80;99.90;;;;;;4986540;28;20526;-84
2023/12/31 09:42:10;;;;;;;6.53;2.45;;;8.90;99.90;;;;;;4973099;28;20048;-84
2023/12/31 09:44:36;;;;;;;5.75;2.08;;;8.90;99.90;;;;;;5011572;28;20066;-85
2023/12/31 09:47:07;;;;;;;5.35;2.00;;;8.90;99.90;;;;;;4961826;28;20132;-84
2023/12/31 09:49:34;;;;;;;6.18;2.30;;;8.90;99.90;;;;;;4991542;28;20104;-84
2023/12/31 09:52:08;;;;;;;6.10;2.28;;;8.90;99.90;;;;;;4977541;28;20132;-84
2023/12/31 09:54:38;;;;;;;5.85;2.13;;;8.90;99.90;;;;;;4989121;28;20061;-84
2023/12/31 09:57:05;;;;;;;5.88;2.10;;;8.90;99.90;;;;;;5010601;28;20042;-85
2023/12/31 09:59:30;;;;;;;7.22;2.30;;;9.00;99.90;;;;;;4973619;28;20069;-84
2023/12/31 10:02:06;;;;;;;5.95;2.17;;;9.00;99.90;;;;;;4971864;28;20443;-84
2023/12/31 10:04:32;;;;;;;6.72;2.15;;;9.20;99.90;;;;;;4993226;28;20034;-84
2023/12/31 10:06:59;;;;;;;7.32;2.58;;;9.00;99.90;;;;;;4993990;28;20038;-84
2023/12/31 10:09:28;;;;;;;7.00;2.25;;;9.00;99.90;;;;;;4994901;28;20499;-84
2023/12/31 10:11:57;;;;;;;5.97;2.10;;;9.30;99.90;;;;;;4994386;28;20042;-84
2023/12/31 10:14:25;;;;;;;6.63;2.40;;;9.00;99.90;;;;;;4963129;28;20045;-84
2023/12/31 10:16:51;;;;;;;6.10;2.10;;;9.00;99.90;;;;;;4983030;28;20133;-84
2023/12/31 10:19:16;;;;;;;6.32;2.30;;;9.20;99.90;;;;;;4962434;28;20192;-84
2023/12/31 10:21:43;;;;;;;7.75;2.60;;;9.90;99.90;;;;;;4978399;28;20038;-84
2023/12/31 10:24:09;;;;;;;7.00;2.40;;;9.10;99.90;;;;;;4978512;28;20065;-84
2023/12/31 10:26:36;;;;;;;6.30;2.45;;;9.10;99.90;;;;;;4970358;28;20053;-84
2023/12/31 10:29:05;;;;;;;6.50;2.38;;;9.10;99.90;;;;;;4976759;28;20435;-84
2023/12/31 10:31:32;;;;;;;9.43;2.50;;;9.10;99.90;;;;;;5015239;28;20038;-83
2023/12/31 10:34:17;;;;;;;6.50;2.42;;;9.20;99.90;;;;;;4973091;28;20404;-83
2023/12/31 10:36:47;;;;;;;6.85;2.50;;;9.20;99.90;;;;;;4998314;28;20041;-84
2023/12/31 10:39:39;;;;;;;6.63;2.40;;;9.20;99.90;;;;;;4986690;28;20067;-84
2023/12/31 10:42:06;;;;;;;6.28;2.22;;;9.30;99.90;;;;;;5005816;28;20455;-84
2023/12/31 10:44:38;;;;;;;6.78;2.65;;;9.30;99.90;;;;;;5006069;28;20446;-84
2023/12/31 10:47:06;;;;;;;5.85;2.30;;;9.30;99.90;;;;;;4972101;28;20121;-83
2023/12/31 10:49:33;;;;;;;5.47;2.28;;;9.30;99.90;;;;;;4987456;28;20060;-84
2023/12/31 10:52:03;;;;;;;6.28;2.40;;;9.70;99.90;;;;;;4989500;28;20438;-83
2023/12/31 10:54:35;;;;;;;7.47;2.50;;;9.40;99.90;;;;;;4970423;28;20125;-84
2023/12/31 10:57:01;;;;;;;6.32;2.45;;;9.60;99.90;;;;;;4987909;28;20049;-83
2023/12/31 10:59:30;;;;;;;5.70;2.33;;;9.40;99.90;;;;;;4990116;28;20045;-84
2023/12/31 11:01:57;;;;;;;6.00;2.30;;;9.40;99.90;;;;;;4974610;28;20038;-84
2023/12/31 11:04:26;;;;;;;7.65;2.33;;;9.50;99.90;;;;;;4987007;28;20066;-84
2023/12/31 11:06:53;;;;;;;6.47;2.30;;;9.50;99.90;;;;;;4989056;28;20154;-84
2023/12/31 11:09:19;;;;;;;6.90;2.40;;;9.50;99.90;;;;;;4986337;28;20041;-85
2023/12/31 11:11:45;;;;;;;6.38;2.38;;;9.60;99.90;;;;;;4972947;28;20046;-84
2023/12/31 11:14:14;;;;;;;7.03;2.30;;;9.60;99.90;;;;;;4969298;28;20057;-85
2023/12/31 11:17:16;;;;;;;6.65;2.60;;;9.60;99.90;;;;;;4989824;28;20426;-85
2023/12/31 11:20:20;;;;;;;6.53;2.40;;;9.60;99.90;;;;;;5005545;28;20396;-84
2023/12/31 11:23:23;;;;;;;6.50;2.40;;;9.70;99.90;;;;;;4989381;28;20030;-84
2023/12/31 11:25:49;;;;;;;6.97;2.50;;;9.60;99.90;;;;;;4994215;28;20117;-84
2023/12/31 11:28:19;;;;;;;7.22;2.65;;;9.60;99.90;;;;;;4988967;28;20042;-84
2023/12/31 11:30:53;;;;;;;8.60;2.65;;;9.50;99.90;;;;;;4989088;28;20147;-84
2023/12/31 11:33:29;;;;;;;6.53;2.40;;;9.50;99.90;;;;;;4991020;28;20038;-84
2023/12/31 11:36:07;;;;;;;6.22;2.17;;;9.40;99.90;;;;;;4987699;28;20115;-84
2023/12/31 11:38:59;;;;;;;6.95;2.42;;;9.50;99.90;;;;;;5002923;28;20100;-84
2023/12/31 11:41:30;;;;;;;7.40;2.50;;;9.30;99.90;;;;;;5006385;28;20034;-84
2023/12/31 11:43:56;;;;;;;6.65;2.50;;;9.40;99.90;;;;;;4973908;28;20029;-83
2023/12/31 11:46:37;;;;;;;6.15;2.22;;;9.40;99.90;;;;;;4988977;28;20517;-84
2023/12/31 11:49:04;;;;;;;6.55;2.47;;;9.20;99.90;;;;;;5004099;28;20606;-83
2023/12/31 11:51:54;;;;;;;5.85;2.25;;;9.20;99.90;;;;;;4971655;28;20295;-83
2023/12/31 11:54:38;;;;;;;6.30;2.33;;;9.10;99.90;;;;;;4988992;28;20048;-81
2023/12/31 11:57:06;;;;;;;6.55;2.15;;;9.70;99.90;;;;;;5005112;28;20038;-85
2023/12/31 11:59:39;;;;;;;2.95;1.48;;;9.00;99.90;;;;;;4988258;28;20034;-85
2023/12/31 12:02:06;;;;;;;3.60;1.30;;;8.80;99.90;;;;;;4956604;28;20053;-84
2023/12/31 12:04:33;;;;;;;2.67;1.30;;;8.60;99.90;;;;;;4970503;28;20159;-84
2023/12/31 12:06:59;;;;;;;2.60;1.30;;;8.60;99.90;;;;;;4984518;28;20526;-84
2023/12/31 12:09:26;;;;;;;2.85;1.40;;;8.30;99.90;;;;;;4987288;28;20068;-84
2023/12/31 12:11:56;;;;;;;3.58;1.30;;;8.20;99.90;;;;;;5006013;28;20519;-84
2023/12/31 12:14:22;;;;;;;3.53;1.40;;;8.10;99.90;;;;;;4989069;28;20042;-84
2023/12/31 12:16:48;;;;;;;2.75;1.48;;;8.20;99.90;;;;;;4988950;28;20462;-84
2023/12/31 12:19:14;;;;;;;3.17;1.50;;;8.20;99.90;;;;;;4986354;28;20119;-84
2023/12/31 12:21:41;;;;;;;3.80;1.52;;;8.20;99.90;;;;;;4986312;28;20079;-85
2023/12/31 12:24:08;;;;;;;3.88;1.70;;;8.10;99.90;;;;;;4971774;28;20213;-86
2023/12/31 12:26:39;;;;;;;2.35;1.30;;;8.10;99.90;;;;;;4985542;28;20042;-85
2023/12/31 12:29:05;;;;;;;2.65;1.48;;;8.00;99.90;;;;;;5020640;28;20141;-84
2023/12/31 12:31:37;;;;;;;3.97;1.52;;;8.10;99.90;;;;;;4971694;28;20488;-84
2023/12/31 12:34:04;;;;;;;2.85;1.48;;;8.20;99.90;;;;;;5002600;28;20045;-84
2023/12/31 12:36:31;;;;;;;3.67;1.42;;;8.10;99.90;;;;;;4983645;28;20570;-83
2023/12/31 12:39:02;;;;;;;2.85;1.30;;;8.10;99.90;;;;;;4992266;28;20038;-84
2023/12/31 12:41:33;;;;;;;3.58;1.67;;;8.30;99.90;;;;;;4976852;28;20073;-84
2023/12/31 12:44:00;;;;;;;3.95;1.60;;;8.30;99.90;;;;;;4975679;28;20042;-85
2023/12/31 12:46:33;;;;;;;4.03;1.50;;;8.50;99.90;;;;;;4989550;28;20113;-84
2023/12/31 12:48:59;;;;;;;4.53;1.63;;;8.60;99.90;;;;;;4992116;28;20125;-84
2023/12/31 12:51:26;;;;;;;3.05;1.40;;;8.70;99.90;;;;;;4973745;28;20338;-84
2023/12/31 12:53:55;;;;;;;4.47;1.83;;;9.00;99.90;;;;;;4973713;28;20483;-84
2023/12/31 12:56:22;;;;;;;2.63;1.40;;;8.80;99.90;;;;;;4992852;28;20203;-84
2023/12/31 12:58:51;;;;;;;3.78;1.60;;;9.40;99.90;;;;;;4973470;28;20038;-84